Avant, Oklahoma
Current Conditions -  °F | °C
As of 7:53 AM on Saturday 01 Nov 2014 (Local Time) from KBVO Reporting Station
Clear Clear  
Wind Chill: 24°   Ceiling: Unl
Heat Index: 24°   Visibility: 10mi
Dew Point: 21°   Wind: 0mph
Humidity: 88%   Direction: NA
Pressure: 30.47"   Gusts: NA
Location:  36.49°N, 96.06°W
Report Text: KBVO 011253Z AUTO 00000KT 10SM CLR M04/M06 A3047 RMK AO2 SLP323 I1000 T10441061 $
Loading
Personal Weather Stations






























Interactive Weather Map
Tropical Storm Tracking
New forecast layout! Learn more

10-Day Weather Forecast

Advertisements
Track Severe Weather on mobile